Time;durP1;ratioP1;P1;durP2;ratioP2;P2;SDS_P1;SDS_P2;PMS_P1;PMS_P2;Temp;Humidity;BMP_temperature;BMP_pressure;BME280_temperature;BME280_humidity;BME280_pressure;Samples;Min_cycle;Max_cycle;Signal;HPM_P1;HPM_P2
2022/10/30 00:00:44;;;;;;;7.90;1.52;;;22.80;67.40;;;;;;5105548;28;20031;-70
2022/10/30 00:03:12;;;;;;;10.30;2.53;;;22.80;67.30;;;;;;5105669;28;20035;-70
2022/10/30 00:05:43;;;;;;;8.40;2.13;;;22.70;67.10;;;;;;5105592;28;20370;-70
2022/10/30 00:08:11;;;;;;;6.72;1.90;;;22.70;67.00;;;;;;5105001;28;20035;-69
2022/10/30 00:10:38;;;;;;;6.78;2.45;;;22.70;66.90;;;;;;5088395;28;20546;-70
2022/10/30 00:13:05;;;;;;;3.22;1.60;;;22.70;66.90;;;;;;5107075;28;20505;-71
2022/10/30 00:15:32;;;;;;;16.92;2.15;;;22.70;66.90;;;;;;5102531;28;20069;-70
2022/10/30 00:17:58;;;;;;;15.77;2.28;;;22.60;67.20;;;;;;5105866;28;20039;-69
2022/10/30 00:20:25;;;;;;;11.05;3.45;;;22.70;67.50;;;;;;5105030;28;20063;-68
2022/10/30 00:22:51;;;;;;;9.77;3.25;;;22.60;67.50;;;;;;5099150;28;20023;-69
2022/10/30 00:25:18;;;;;;;15.63;3.08;;;22.60;67.60;;;;;;5107502;28;20023;-68
2022/10/30 00:27:44;;;;;;;6.65;2.53;;;22.60;67.80;;;;;;5106867;28;20019;-70
2022/10/30 00:30:11;;;;;;;7.00;2.35;;;22.60;68.00;;;;;;5103352;28;20027;-69
2022/10/30 00:32:38;;;;;;;8.02;2.70;;;22.50;68.10;;;;;;5104492;28;20089;-67
2022/10/30 00:35:05;;;;;;;4.43;1.45;;;22.60;68.20;;;;;;5106482;28;20028;-69
2022/10/30 00:37:31;;;;;;;8.93;2.33;;;22.50;68.20;;;;;;5103405;28;20013;-69
2022/10/30 00:39:57;;;;;;;7.03;2.42;;;22.50;68.40;;;;;;5106848;28;20024;-68
2022/10/30 00:42:29;;;;;;;6.50;2.03;;;22.50;68.50;;;;;;5107430;28;20020;-70
2022/10/30 00:44:56;;;;;;;8.13;2.13;;;22.50;68.50;;;;;;5104009;28;20058;-70
2022/10/30 00:47:40;;;;;;;10.02;1.88;;;22.50;68.60;;;;;;5105550;28;20065;-70
2022/10/30 00:50:29;;;;;;;5.72;1.30;;;22.50;68.70;;;;;;5103257;28;20505;-70
2022/10/30 00:53:17;;;;;;;4.43;1.50;;;22.50;68.80;;;;;;5105284;28;20032;-70
2022/10/30 00:55:50;;;;;;;6.38;1.23;;;22.50;69.50;;;;;;5104984;28;20019;-70
2022/10/30 00:58:20;;;;;;;5.93;2.53;;;22.40;68.70;;;;;;5101359;28;20123;-69
2022/10/30 01:00:52;;;;;;;6.95;3.25;;;22.40;68.70;;;;;;5103452;28;20024;-70
2022/10/30 01:03:21;;;;;;;7.93;2.22;;;22.40;68.70;;;;;;5105954;28;20027;-68
2022/10/30 01:05:51;;;;;;;9.52;4.72;;;22.40;68.70;;;;;;5108327;28;20016;-69
2022/10/30 01:08:18;;;;;;;24.65;9.50;;;22.40;68.70;;;;;;5103741;28;20023;-69
2022/10/30 01:10:45;;;;;;;12.93;6.53;;;22.40;68.70;;;;;;5102588;28;20380;-68
2022/10/30 01:13:11;;;;;;;13.40;6.22;;;22.40;68.70;;;;;;5104462;28;20012;-69
2022/10/30 01:15:48;;;;;;;9.85;4.78;;;22.40;68.50;;;;;;5107261;28;20027;-70
2022/10/30 01:18:41;;;;;;;9.32;4.60;;;22.40;68.20;;;;;;5106080;28;20023;-69
2022/10/30 01:21:17;;;;;;;5.68;3.55;;;22.30;68.10;;;;;;5104035;28;20024;-70
2022/10/30 01:24:22;;;;;;;8.30;3.65;;;22.30;68.20;;;;;;5103835;28;20034;-70
2022/10/30 01:27:19;;;;;;;9.98;2.40;;;22.30;68.20;;;;;;5107277;28;20498;-69
2022/10/30 01:30:09;;;;;;;7.72;2.97;;;22.30;68.10;;;;;;5096576;28;20012;-69
2022/10/30 01:33:06;;;;;;;5.85;1.95;;;22.30;68.20;;;;;;5106481;28;20027;-69
2022/10/30 01:36:07;;;;;;;5.93;1.70;;;22.20;68.20;;;;;;5107381;28;20016;-70
2022/10/30 01:38:37;;;;;;;4.70;1.65;;;22.30;68.20;;;;;;5039104;28;20582;-70
2022/10/30 01:41:03;;;;;;;6.85;2.15;;;22.20;68.10;;;;;;5092906;28;20036;-70
2022/10/30 01:43:31;;;;;;;4.53;1.52;;;22.20;68.30;;;;;;5100607;28;20546;-70
2022/10/30 01:46:13;;;;;;;5.80;2.22;;;22.20;68.20;;;;;;5105661;28;20026;-69
2022/10/30 01:48:59;;;;;;;4.65;1.63;;;22.20;68.30;;;;;;5105671;28;20038;-70
2022/10/30 01:51:31;;;;;;;4.90;2.60;;;22.10;68.20;;;;;;5105696;28;20016;-68
2022/10/30 01:54:13;;;;;;;4.80;1.10;;;22.20;68.30;;;;;;5103961;28;20027;-70
2022/10/30 01:57:01;;;;;;;4.05;1.92;;;22.20;68.30;;;;;;5103566;28;20085;-70
2022/10/30 01:59:34;;;;;;;7.13;2.25;;;22.10;68.30;;;;;;5100321;28;20039;-69
2022/10/30 02:02:01;;;;;;;2.75;1.15;;;22.10;68.30;;;;;;5106239;28;20028;-70
2022/10/30 02:04:28;;;;;;;3.22;1.77;;;22.10;68.30;;;;;;5102909;28;20537;-70
2022/10/30 02:06:54;;;;;;;8.60;2.67;;;22.10;68.40;;;;;;5098975;28;20393;-68
2022/10/30 02:09:21;;;;;;;12.50;2.67;;;22.10;68.40;;;;;;5105195;28;20378;-69
2022/10/30 02:11:48;;;;;;;4.43;2.15;;;22.10;68.50;;;;;;5099136;28;20415;-69
2022/10/30 02:14:27;;;;;;;6.97;2.40;;;22.00;68.60;;;;;;5109276;28;20019;-69
2022/10/30 02:16:57;;;;;;;7.88;3.13;;;22.00;68.50;;;;;;5104408;28;20023;-69
2022/10/30 02:19:24;;;;;;;7.03;2.92;;;22.00;68.40;;;;;;5104567;28;20027;-70
2022/10/30 02:21:51;;;;;;;3.33;1.85;;;22.00;68.20;;;;;;5102128;28;20061;-69
2022/10/30 02:24:17;;;;;;;10.15;3.55;;;22.00;68.20;;;;;;5105835;28;20023;-70
2022/10/30 02:26:44;;;;;;;10.50;3.40;;;21.90;68.10;;;;;;5104483;28;20578;-69
2022/10/30 02:29:10;;;;;;;4.97;2.80;;;21.90;68.20;;;;;;5108673;28;20042;-70
2022/10/30 02:31:37;;;;;;;6.07;2.92;;;21.90;68.30;;;;;;5103264;28;20077;-69
2022/10/30 02:34:04;;;;;;;7.43;3.83;;;21.90;68.40;;;;;;5106858;28;20081;-68
2022/10/30 02:36:30;;;;;;;8.02;3.35;;;21.90;68.50;;;;;;5109456;28;20027;-68
2022/10/30 02:38:57;;;;;;;5.55;3.33;;;21.90;68.50;;;;;;5104891;28;20024;-69
2022/10/30 02:41:24;;;;;;;6.63;3.78;;;21.90;68.50;;;;;;5110847;28;20028;-70
2022/10/30 02:43:52;;;;;;;7.88;4.82;;;21.80;68.40;;;;;;5109507;28;20011;-69
2022/10/30 02:46:19;;;;;;;7.32;3.40;;;21.80;68.50;;;;;;5110847;28;20024;-69
2022/10/30 02:48:45;;;;;;;8.93;3.83;;;21.80;68.50;;;;;;5105616;28;20055;-70
2022/10/30 02:51:12;;;;;;;8.95;2.63;;;21.80;68.50;;;;;;5109585;28;20068;-70
2022/10/30 02:53:38;;;;;;;7.72;2.55;;;21.80;68.50;;;;;;5110837;28;20412;-70
2022/10/30 02:56:10;;;;;;;8.07;3.70;;;21.70;68.60;;;;;;5107081;28;20031;-69
2022/10/30 02:58:37;;;;;;;8.25;2.60;;;21.70;68.50;;;;;;5105787;28;20067;-70
2022/10/30 03:01:11;;;;;;;9.43;3.92;;;21.70;68.50;;;;;;5108180;28;20035;-70
2022/10/30 03:03:39;;;;;;;10.40;3.20;;;21.70;68.50;;;;;;5107465;28;20031;-70
2022/10/30 03:06:08;;;;;;;8.98;2.90;;;21.60;68.50;;;;;;5104513;28;20020;-70
2022/10/30 03:08:35;;;;;;;4.82;3.03;;;21.70;68.50;;;;;;5106781;28;20421;-70
2022/10/30 03:11:11;;;;;;;5.05;2.47;;;21.60;68.50;;;;;;5089831;28;20069;-71
2022/10/30 03:13:41;;;;;;;14.10;4.60;;;21.60;68.50;;;;;;5106409;28;20367;-70
2022/10/30 03:16:11;;;;;;;8.07;3.42;;;21.60;68.60;;;;;;5107692;28;20015;-70
2022/10/30 03:18:38;;;;;;;13.85;4.63;;;21.60;68.50;;;;;;5107841;28;20035;-70
2022/10/30 03:21:07;;;;;;;16.50;5.57;;;21.60;68.50;;;;;;5105617;28;20537;-70
2022/10/30 03:23:34;;;;;;;23.80;14.70;;;21.60;69.10;;;;;;5101269;28;20479;-70
2022/10/30 03:26:01;;;;;;;20.75;13.73;;;21.60;69.60;;;;;;5107831;28;20076;-69
2022/10/30 03:28:29;;;;;;;17.17;9.27;;;21.50;69.50;;;;;;5102502;28;20042;-68
2022/10/30 03:31:05;;;;;;;13.20;7.07;;;21.50;69.10;;;;;;5104751;28;20016;-69
2022/10/30 03:33:32;;;;;;;9.77;5.70;;;21.50;68.90;;;;;;5106698;28;20062;-69
2022/10/30 03:35:59;;;;;;;11.63;4.82;;;21.50;68.80;;;;;;5108639;28;20068;-69
2022/10/30 03:38:26;;;;;;;8.23;3.58;;;21.40;68.70;;;;;;5104921;28;20028;-69
2022/10/30 03:40:53;;;;;;;7.43;3.53;;;21.50;68.80;;;;;;5105437;28;20525;-68
2022/10/30 03:43:20;;;;;;;4.95;2.72;;;21.40;68.80;;;;;;5106863;28;20027;-69
2022/10/30 03:45:52;;;;;;;4.57;2.90;;;21.40;68.90;;;;;;5108295;28;20026;-69
2022/10/30 03:48:21;;;;;;;10.93;4.25;;;21.40;69.00;;;;;;5107579;28;20036;-69
2022/10/30 03:50:47;;;;;;;10.00;2.97;;;21.40;69.10;;;;;;5109074;28;20463;-69
2022/10/30 03:53:14;;;;;;;8.38;3.35;;;21.40;69.00;;;;;;5108461;28;20102;-68
2022/10/30 03:55:41;;;;;;;7.82;3.83;;;21.40;69.10;;;;;;5107046;28;20024;-69
2022/10/30 03:58:08;;;;;;;8.65;3.63;;;21.30;69.10;;;;;;5107613;28;20557;-69
2022/10/30 04:00:35;;;;;;;7.07;2.30;;;21.40;69.20;;;;;;5104634;28;20020;-68
2022/10/30 04:03:05;;;;;;;5.78;2.10;;;21.30;69.20;;;;;;5104693;28;20073;-68
2022/10/30 04:05:31;;;;;;;10.68;2.97;;;21.30;69.30;;;;;;5102219;28;20030;-68
2022/10/30 04:08:00;;;;;;;11.88;4.88;;;21.30;69.30;;;;;;5109495;28;20031;-67
2022/10/30 04:10:27;;;;;;;15.90;7.63;;;21.40;70.00;;;;;;5104780;28;20022;-69
2022/10/30 04:13:03;;;;;;;7.70;4.95;;;21.40;70.20;;;;;;5107582;28;20100;-67
2022/10/30 04:15:31;;;;;;;8.05;3.25;;;21.40;70.10;;;;;;5087654;28;20160;-68
2022/10/30 04:17:57;;;;;;;3.40;2.63;;;21.30;69.90;;;;;;5105937;28;20004;-68
2022/10/30 04:20:25;;;;;;;4.68;3.15;;;21.30;69.70;;;;;;5104920;28;20035;-70
2022/10/30 04:23:02;;;;;;;10.15;2.75;;;21.30;69.70;;;;;;5101954;28;20080;-69
2022/10/30 04:25:29;;;;;;;10.52;2.92;;;21.30;69.70;;;;;;5106827;28;20015;-69
2022/10/30 04:27:56;;;;;;;10.90;3.25;;;21.30;69.70;;;;;;5105366;28;20031;-70
2022/10/30 04:30:24;;;;;;;5.72;2.75;;;21.20;69.80;;;;;;5106481;28;20016;-69
2022/10/30 04:32:53;;;;;;;9.18;4.53;;;21.20;69.90;;;;;;5106489;28;20024;-69
2022/10/30 04:35:21;;;;;;;1.55;1.42;;;21.20;70.00;;;;;;5104575;28;20351;-69
2022/10/30 04:37:55;;;;;;;5.68;2.35;;;21.20;70.20;;;;;;5106263;28;20103;-69
2022/10/30 04:40:27;;;;;;;6.07;2.55;;;21.30;70.30;;;;;;5086515;28;20038;-68
2022/10/30 04:42:54;;;;;;;6.90;2.30;;;21.30;70.40;;;;;;5106665;28;20065;-68
2022/10/30 04:45:20;;;;;;;19.52;14.40;;;21.30;70.60;;;;;;5107054;28;20024;-70
2022/10/30 04:47:47;;;;;;;19.40;14.15;;;21.30;71.30;;;;;;5102928;28;20353;-69
2022/10/30 04:50:14;;;;;;;20.27;13.43;;;21.40;71.90;;;;;;5108011;28;20069;-68
2022/10/30 04:52:41;;;;;;;20.65;10.52;;;21.30;73.20;;;;;;5099305;28;20489;-69
2022/10/30 04:55:09;;;;;;;17.63;11.93;;;21.40;72.80;;;;;;5105067;28;20031;-69
2022/10/30 04:57:36;;;;;;;19.20;7.00;;;21.40;72.40;;;;;;5105601;28;20397;-70
2022/10/30 05:00:08;;;;;;;8.90;4.82;;;21.40;72.90;;;;;;5101224;28;20445;-70
2022/10/30 05:02:35;;;;;;;10.75;4.07;;;21.50;73.00;;;;;;5102696;28;20533;-69
2022/10/30 05:05:03;;;;;;;4.60;3.20;;;21.50;72.60;;;;;;5102388;28;20024;-70
2022/10/30 05:07:29;;;;;;;7.10;2.60;;;21.50;72.20;;;;;;5105318;28;20082;-69
2022/10/30 05:09:56;;;;;;;4.60;2.25;;;21.50;71.70;;;;;;5102818;28;20103;-69
2022/10/30 05:12:22;;;;;;;7.88;2.80;;;21.50;71.30;;;;;;5105035;28;20111;-70
2022/10/30 05:14:49;;;;;;;5.40;2.65;;;21.60;71.20;;;;;;5100897;28;20380;-69
2022/10/30 05:17:15;;;;;;;4.90;2.97;;;21.60;70.90;;;;;;5106814;28;20494;-70
2022/10/30 05:19:42;;;;;;;3.85;2.00;;;21.60;70.80;;;;;;5104336;28;20053;-70
2022/10/30 05:22:09;;;;;;;5.13;2.28;;;21.60;70.60;;;;;;5105388;28;20065;-70
2022/10/30 05:24:35;;;;;;;9.88;2.10;;;21.70;70.50;;;;;;5104348;28;20032;-70
2022/10/30 05:27:02;;;;;;;5.25;1.50;;;21.60;70.40;;;;;;5103761;28;20032;-71
2022/10/30 05:29:28;;;;;;;6.30;3.30;;;21.70;70.30;;;;;;5101465;28;20584;-69
2022/10/30 05:31:55;;;;;;;2.88;1.48;;;21.70;70.20;;;;;;5099524;28;20045;-69
2022/10/30 05:34:21;;;;;;;9.20;2.95;;;21.70;70.00;;;;;;5098707;28;20023;-69
2022/10/30 05:36:48;;;;;;;13.23;7.97;;;21.80;69.90;;;;;;5101724;28;20106;-68
2022/10/30 05:39:14;;;;;;;8.75;5.57;;;21.80;69.80;;;;;;5102143;28;20026;-69
2022/10/30 05:41:41;;;;;;;10.73;6.75;;;21.80;69.80;;;;;;5103624;28;20020;-69
2022/10/30 05:44:07;;;;;;;8.77;4.07;;;21.80;69.80;;;;;;5098965;28;20429;-69
2022/10/30 05:46:34;;;;;;;17.05;4.18;;;21.90;69.90;;;;;;5100130;28;20118;-70
2022/10/30 05:49:00;;;;;;;3.55;2.60;;;21.90;69.80;;;;;;5102765;28;20024;-70
2022/10/30 05:51:27;;;;;;;3.65;3.03;;;22.00;69.80;;;;;;5098511;28;20343;-70
2022/10/30 05:53:53;;;;;;;5.55;2.67;;;22.00;69.60;;;;;;5095748;28;20476;-68
2022/10/30 05:56:20;;;;;;;8.90;5.93;;;22.00;69.40;;;;;;5101220;28;20690;-69
2022/10/30 05:58:49;;;;;;;11.95;9.02;;;22.00;69.10;;;;;;5106973;28;20108;-71
2022/10/30 06:01:16;;;;;;;10.60;6.50;;;22.10;68.80;;;;;;5107565;28;20074;-71
2022/10/30 06:03:42;;;;;;;9.07;3.47;;;22.10;68.50;;;;;;5107261;28;20023;-71
2022/10/30 06:06:09;;;;;;;9.85;3.55;;;22.10;68.10;;;;;;5101695;28;20099;-72
2022/10/30 06:08:35;;;;;;;4.35;2.50;;;22.10;67.70;;;;;;5105381;28;20032;-71
2022/10/30 06:11:02;;;;;;;4.93;2.63;;;22.20;67.40;;;;;;5106061;28;20356;-71
2022/10/30 06:13:28;;;;;;;17.73;4.88;;;22.20;67.10;;;;;;5102213;28;20023;-71
2022/10/30 06:15:55;;;;;;;10.25;2.03;;;22.20;66.90;;;;;;5101825;28;20100;-71
2022/10/30 06:18:23;;;;;;;9.10;3.00;;;22.30;67.10;;;;;;5098749;28;20024;-69
2022/10/30 06:20:50;;;;;;;13.25;2.80;;;22.30;67.40;;;;;;5099984;28;20085;-71
2022/10/30 06:23:16;;;;;;;10.18;6.75;;;22.30;67.50;;;;;;5099663;28;20035;-71
2022/10/30 06:25:43;;;;;;;12.38;5.10;;;22.40;67.60;;;;;;5098765;28;20020;-72
2022/10/30 06:28:12;;;;;;;4.15;2.83;;;22.40;67.20;;;;;;5098268;28;20656;-72
2022/10/30 06:30:38;;;;;;;4.53;3.75;;;22.40;66.80;;;;;;5102902;28;20423;-73
2022/10/30 06:33:06;;;;;;;3.03;1.80;;;22.40;66.50;;;;;;5099458;28;20076;-72
2022/10/30 06:35:32;;;;;;;4.32;2.17;;;22.50;66.30;;;;;;5105595;28;20030;-70
2022/10/30 06:37:59;;;;;;;6.43;2.67;;;22.50;66.10;;;;;;5081408;28;20020;-72
2022/10/30 06:40:26;;;;;;;4.95;1.75;;;22.50;66.00;;;;;;5096703;28;20107;-71
2022/10/30 06:42:53;;;;;;;6.43;1.27;;;22.50;66.00;;;;;;5098527;28;20648;-75
2022/10/30 06:45:22;;;;;;;5.07;1.73;;;22.60;65.90;;;;;;5101007;28;20026;-72
2022/10/30 06:47:48;;;;;;;6.25;1.50;;;22.60;65.80;;;;;;5103577;28;20038;-71
2022/10/30 06:50:18;;;;;;;4.38;1.80;;;22.60;65.90;;;;;;5101407;28;20027;-71
2022/10/30 06:52:44;;;;;;;4.60;1.30;;;22.60;65.80;;;;;;5085629;28;20445;-71
2022/10/30 06:55:11;;;;;;;6.95;1.45;;;22.70;65.60;;;;;;5105673;28;20031;-71
2022/10/30 06:57:38;;;;;;;11.45;2.78;;;22.70;65.30;;;;;;5101681;28;20040;-71
2022/10/30 07:00:06;;;;;;;7.15;1.45;;;22.70;66.50;;;;;;5106839;28;20023;-71
2022/10/30 07:02:33;;;;;;;16.48;4.63;;;22.70;67.20;;;;;;5105101;28;20497;-71
2022/10/30 07:05:00;;;;;;;11.25;4.50;;;22.70;66.90;;;;;;5102593;28;20027;-71
2022/10/30 07:07:26;;;;;;;4.72;1.42;;;22.80;66.60;;;;;;5098870;28;20143;-71
2022/10/30 07:09:53;;;;;;;4.68;0.93;;;22.70;65.90;;;;;;5104167;28;20034;-71
2022/10/30 07:12:19;;;;;;;4.43;1.30;;;22.80;65.40;;;;;;5105366;28;20124;-71
2022/10/30 07:14:49;;;;;;;7.18;0.90;;;22.80;64.90;;;;;;5106944;28;20024;-71
2022/10/30 07:17:15;;;;;;;2.83;1.15;;;22.80;64.40;;;;;;5105552;28;20019;-71
2022/10/30 07:19:42;;;;;;;3.78;1.45;;;22.80;64.30;;;;;;5106808;28;20026;-72
2022/10/30 07:22:08;;;;;;;2.25;0.70;;;22.90;64.30;;;;;;5109763;28;20030;-71
2022/10/30 07:24:35;;;;;;;1.20;0.70;;;22.90;64.20;;;;;;5109406;28;20012;-71
2022/10/30 07:27:01;;;;;;;1.88;0.68;;;22.90;64.00;;;;;;5107954;28;20111;-71
2022/10/30 07:29:28;;;;;;;3.88;1.17;;;22.90;64.00;;;;;;5105432;28;20483;-71
2022/10/30 07:31:54;;;;;;;8.27;2.05;;;22.90;64.20;;;;;;5106013;28;20024;-71
2022/10/30 07:34:21;;;;;;;7.05;1.17;;;22.90;64.60;;;;;;5104834;28;20609;-71
2022/10/30 07:36:47;;;;;;;6.13;1.35;;;22.90;65.10;;;;;;5109106;28;20076;-72
2022/10/30 07:39:14;;;;;;;5.00;1.00;;;22.90;65.60;;;;;;5109160;28;20027;-71
2022/10/30 07:41:40;;;;;;;3.55;0.70;;;22.90;65.50;;;;;;5102722;28;20163;-71
2022/10/30 07:44:07;;;;;;;3.13;0.77;;;22.90;65.50;;;;;;5107077;28;20102;-71
2022/10/30 07:46:33;;;;;;;4.65;1.55;;;22.90;65.60;;;;;;5102632;28;20024;-72
2022/10/30 07:49:00;;;;;;;5.90;0.93;;;22.90;65.70;;;;;;5109834;28;20093;-71
2022/10/30 07:51:26;;;;;;;3.88;1.17;;;22.90;65.80;;;;;;5104341;28;20066;-71
2022/10/30 07:53:53;;;;;;;5.18;1.10;;;22.80;65.90;;;;;;5093896;28;20032;-71
2022/10/30 07:56:19;;;;;;;5.45;1.20;;;22.80;66.20;;;;;;5103133;28;20076;-71
2022/10/30 07:58:46;;;;;;;8.55;1.30;;;22.80;66.40;;;;;;5108297;28;20039;-71
2022/10/30 08:01:12;;;;;;;5.10;1.95;;;22.80;66.50;;;;;;5107821;28;20032;-72
2022/10/30 08:03:39;;;;;;;7.55;1.50;;;22.90;66.70;;;;;;5108836;28;20702;-71
2022/10/30 08:06:06;;;;;;;3.25;1.05;;;22.90;66.70;;;;;;5106788;28;20026;-71
2022/10/30 08:08:32;;;;;;;3.55;0.88;;;22.80;66.80;;;;;;5105539;28;20428;-71
2022/10/30 08:10:59;;;;;;;4.20;0.93;;;22.80;66.90;;;;;;5108600;28;20016;-71
2022/10/30 08:13:25;;;;;;;4.32;1.38;;;22.90;66.90;;;;;;5104044;28;20510;-72
2022/10/30 08:15:52;;;;;;;4.82;1.80;;;22.90;67.00;;;;;;5107138;28;20028;-71
2022/10/30 08:18:18;;;;;;;2.85;0.88;;;22.90;67.20;;;;;;5106787;28;20030;-72
2022/10/30 08:20:49;;;;;;;4.25;1.10;;;22.90;67.30;;;;;;5106397;28;20535;-71
2022/10/30 08:23:18;;;;;;;4.85;1.08;;;22.90;67.20;;;;;;5109029;28;20047;-71
2022/10/30 08:25:45;;;;;;;4.32;1.08;;;23.00;67.30;;;;;;5101650;28;20039;-72
2022/10/30 08:28:13;;;;;;;2.13;0.88;;;23.00;67.30;;;;;;5105924;28;20071;-71
2022/10/30 08:30:40;;;;;;;8.15;3.17;;;23.00;67.30;;;;;;5104339;28;20019;-71
2022/10/30 08:33:12;;;;;;;2.78;1.02;;;22.90;67.30;;;;;;5105126;28;20024;-71
2022/10/30 08:35:45;;;;;;;3.97;0.95;;;22.90;67.30;;;;;;5103032;28;20020;-71
2022/10/30 08:38:12;;;;;;;4.57;1.50;;;22.90;67.40;;;;;;5101542;28;20032;-71
2022/10/30 08:40:38;;;;;;;4.50;1.63;;;22.90;67.50;;;;;;5108181;28;20026;-71
2022/10/30 08:43:04;;;;;;;8.40;1.77;;;22.90;67.60;;;;;;5107405;28;20028;-71
2022/10/30 08:45:31;;;;;;;3.30;1.30;;;22.90;67.70;;;;;;5106412;28;20051;-71
2022/10/30 08:48:03;;;;;;;12.45;1.75;;;22.90;67.80;;;;;;5107724;28;20489;-71
2022/10/30 08:50:31;;;;;;;2.08;1.38;;;22.90;67.90;;;;;;5100221;28;20024;-71
2022/10/30 08:53:09;;;;;;;6.82;0.90;;;22.90;67.80;;;;;;5108008;28;20482;-71
2022/10/30 08:55:35;;;;;;;4.53;2.55;;;22.90;67.70;;;;;;5103113;28;21356;-72
2022/10/30 08:58:03;;;;;;;4.63;1.15;;;22.90;67.70;;;;;;5105577;28;20047;-71
2022/10/30 09:00:30;;;;;;;5.03;1.08;;;22.80;67.60;;;;;;5102878;28;20715;-72
2022/10/30 09:02:57;;;;;;;2.70;0.90;;;22.80;67.70;;;;;;5106788;28;20030;-72
2022/10/30 09:05:23;;;;;;;4.63;1.33;;;22.80;67.70;;;;;;5107249;28;20024;-72
2022/10/30 09:07:56;;;;;;;4.15;1.70;;;22.80;67.70;;;;;;5105868;28;20118;-72
2022/10/30 09:10:23;;;;;;;3.10;1.02;;;22.80;67.70;;;;;;5103702;28;20080;-71
2022/10/30 09:12:57;;;;;;;3.30;1.75;;;22.80;67.80;;;;;;5104757;28;20673;-71
2022/10/30 09:15:24;;;;;;;4.95;0.95;;;22.80;67.80;;;;;;5106401;28;20038;-71
2022/10/30 09:18:01;;;;;;;4.07;1.15;;;22.70;67.80;;;;;;5106594;28;20062;-71
2022/10/30 09:20:29;;;;;;;3.25;1.50;;;22.70;67.80;;;;;;5106189;28;20027;-71
2022/10/30 09:22:56;;;;;;;10.18;4.00;;;22.70;67.80;;;;;;5085448;28;20468;-71
2022/10/30 09:25:22;;;;;;;4.70;1.50;;;22.70;68.00;;;;;;5102594;28;20064;-71
2022/10/30 09:27:49;;;;;;;4.88;1.80;;;22.70;68.50;;;;;;5103699;28;20062;-71
2022/10/30 09:30:15;;;;;;;7.88;1.25;;;22.60;68.70;;;;;;5105056;28;20558;-71
2022/10/30 09:32:42;;;;;;;3.97;2.33;;;22.70;68.80;;;;;;5106994;28;20047;-71
2022/10/30 09:35:09;;;;;;;4.05;1.10;;;22.60;69.70;;;;;;5100547;28;20062;-71
2022/10/30 09:37:36;;;;;;;7.00;1.90;;;22.60;69.10;;;;;;5106514;28;20024;-71
2022/10/30 09:40:06;;;;;;;2.85;1.13;;;22.60;69.20;;;;;;5106336;28;20024;-71
2022/10/30 09:42:47;;;;;;;6.60;1.23;;;22.60;69.50;;;;;;5102758;28;20039;-71
2022/10/30 09:45:45;;;;;;;7.70;1.20;;;22.60;69.90;;;;;;5104372;28;20035;-69
2022/10/30 09:48:31;;;;;;;7.43;2.03;;;22.60;70.40;;;;;;5038179;28;20047;-68
2022/10/30 09:51:08;;;;;;;3.72;2.35;;;22.60;71.20;;;;;;5103998;28;20064;-69
2022/10/30 09:53:38;;;;;;;4.95;1.38;;;22.60;71.70;;;;;;5103609;28;20046;-68
2022/10/30 09:56:13;;;;;;;3.50;1.38;;;22.50;72.10;;;;;;5101746;28;20110;-69
2022/10/30 09:58:59;;;;;;;4.88;1.45;;;22.50;72.80;;;;;;5107868;28;20566;-69
2022/10/30 10:01:49;;;;;;;6.25;1.85;;;22.50;73.30;;;;;;5102355;28;20073;-69
2022/10/30 10:04:42;;;;;;;8.75;2.03;;;22.40;73.80;;;;;;5095396;28;20028;-69
2022/10/30 10:07:29;;;;;;;3.90;1.75;;;22.40;74.60;;;;;;5103685;28;20019;-69
2022/10/30 10:10:02;;;;;;;5.70;1.38;;;22.40;74.90;;;;;;5103405;28;20542;-70
2022/10/30 10:12:57;;;;;;;12.93;4.18;;;22.30;75.40;;;;;;5103875;28;20364;-70
2022/10/30 10:15:38;;;;;;;10.68;2.45;;;22.30;75.80;;;;;;5105892;28;20024;-71
2022/10/30 10:18:19;;;;;;;4.78;2.80;;;22.30;75.80;;;;;;5104321;28;20036;-70
2022/10/30 10:20:51;;;;;;;10.98;3.15;;;22.30;76.50;;;;;;5084925;28;20066;-71
2022/10/30 10:23:25;;;;;;;9.10;2.28;;;22.30;76.40;;;;;;5105584;28;20051;-71
2022/10/30 10:25:59;;;;;;;7.57;2.28;;;22.20;76.40;;;;;;5105226;28;20069;-70
2022/10/30 10:28:48;;;;;;;17.05;3.17;;;22.30;76.30;;;;;;5107171;28;20059;-71
2022/10/30 10:31:39;;;;;;;16.13;4.45;;;22.30;76.10;;;;;;5097790;28;20028;-71
2022/10/30 10:34:32;;;;;;;11.20;2.47;;;22.30;75.80;;;;;;5104270;28;20035;-71
2022/10/30 10:37:29;;;;;;;10.45;2.13;;;22.40;75.00;;;;;;5103426;28;20051;-71
2022/10/30 10:40:21;;;;;;;7.25;2.20;;;22.40;74.00;;;;;;5103479;28;20412;-71
2022/10/30 10:43:21;;;;;;;7.50;1.95;;;22.40;73.50;;;;;;5106655;28;20028;-71
2022/10/30 10:45:48;;;;;;;15.80;3.63;;;22.40;73.20;;;;;;5107073;28;20423;-72
2022/10/30 10:48:20;;;;;;;11.15;2.20;;;22.50;73.00;;;;;;5108019;28;20039;-71
2022/10/30 10:51:07;;;;;;;10.82;2.40;;;22.50;72.70;;;;;;5109383;28;20020;-69
2022/10/30 10:53:39;;;;;;;19.58;4.80;;;22.50;72.20;;;;;;5106333;28;20505;-71
2022/10/30 10:56:07;;;;;;;22.98;7.13;;;22.60;71.40;;;;;;5101914;28;20020;-71
2022/10/30 10:58:56;;;;;;;41.45;14.90;;;22.60;71.10;;;;;;5104409;28;20032;-71
2022/10/30 11:01:40;;;;;;;21.27;8.52;;;22.60;71.10;;;;;;5102145;28;20040;-71
2022/10/30 11:04:32;;;;;;;19.75;4.57;;;22.60;70.60;;;;;;5102159;28;20467;-71
2022/10/30 11:07:01;;;;;;;12.93;3.45;;;22.60;70.00;;;;;;5101605;28;20129;-71
2022/10/30 11:09:28;;;;;;;6.55;2.90;;;22.70;69.30;;;;;;5102712;28;20155;-71
2022/10/30 11:11:55;;;;;;;16.10;2.67;;;22.70;68.80;;;;;;5083683;28;20432;-72
2022/10/30 11:14:24;;;;;;;16.92;4.10;;;22.70;68.10;;;;;;5099287;28;20016;-71
2022/10/30 11:17:12;;;;;;;8.82;2.67;;;22.70;67.50;;;;;;5103513;28;20020;-70
2022/10/30 11:19:39;;;;;;;16.60;6.53;;;22.70;66.60;;;;;;5105964;28;20084;-71
2022/10/30 11:22:35;;;;;;;25.95;8.18;;;22.70;66.10;;;;;;5104988;28;20147;-71
2022/10/30 11:25:21;;;;;;;16.08;6.65;;;22.80;66.50;;;;;;5091223;28;20039;-73
2022/10/30 11:27:54;;;;;;;14.35;5.15;;;22.80;66.20;;;;;;5108104;28;20042;-70
2022/10/30 11:30:23;;;;;;;6.78;2.17;;;22.90;65.80;;;;;;5108494;28;20027;-70
2022/10/30 11:32:50;;;;;;;8.80;1.73;;;22.90;64.90;;;;;;5107353;28;20060;-70
2022/10/30 11:35:19;;;;;;;12.38;2.50;;;23.00;63.90;;;;;;5106613;28;20048;-71
2022/10/30 11:37:48;;;;;;;9.00;2.63;;;23.00;62.90;;;;;;5110255;28;20027;-71
2022/10/30 11:40:16;;;;;;;8.02;2.22;;;23.00;62.40;;;;;;5105442;28;20015;-72
2022/10/30 11:42:45;;;;;;;7.45;2.58;;;23.00;61.90;;;;;;5104925;28;20020;-70
2022/10/30 11:45:33;;;;;;;9.32;2.70;;;23.10;61.70;;;;;;5105285;28;20016;-70
2022/10/30 11:48:01;;;;;;;7.40;3.10;;;23.10;61.50;;;;;;5106522;28;20122;-70
2022/10/30 11:50:30;;;;;;;6.25;2.33;;;23.10;61.40;;;;;;5107842;28;20495;-70
2022/10/30 11:53:29;;;;;;;6.43;1.95;;;23.20;61.00;;;;;;5098353;28;20031;-70
2022/10/30 11:55:57;;;;;;;6.13;2.05;;;23.20;60.90;;;;;;5107555;28;20031;-69
2022/10/30 11:58:37;;;;;;;7.97;2.28;;;23.20;60.60;;;;;;5102081;28;20566;-70
2022/10/30 12:01:12;;;;;;;4.60;2.95;;;23.30;60.20;;;;;;5103471;28;20110;-70
2022/10/30 12:03:40;;;;;;;8.93;3.00;;;23.30;60.10;;;;;;5105965;28;20024;-71
2022/10/30 12:06:18;;;;;;;10.60;4.38;;;23.40;60.00;;;;;;5099149;28;20035;-69
2022/10/30 12:09:19;;;;;;;13.40;3.70;;;23.40;59.90;;;;;;5107452;28;20137;-70
2022/10/30 12:11:46;;;;;;;9.65;3.15;;;23.40;59.90;;;;;;5102033;28;20035;-70
2022/10/30 12:14:21;;;;;;;12.35;3.13;;;23.50;59.90;;;;;;5101863;28;20016;-70
2022/10/30 12:16:53;;;;;;;13.75;2.85;;;23.50;59.70;;;;;;5101834;28;20062;-71
2022/10/30 12:19:22;;;;;;;8.63;2.13;;;23.50;60.10;;;;;;5101786;28;20048;-71
2022/10/30 12:21:55;;;;;;;22.27;3.20;;;23.60;60.30;;;;;;5100215;28;20031;-69
2022/10/30 12:24:43;;;;;;;9.88;3.15;;;23.50;60.00;;;;;;5099668;28;20051;-70
2022/10/30 12:27:16;;;;;;;8.60;2.53;;;23.60;60.00;;;;;;5100171;28;20062;-71
2022/10/30 12:30:07;;;;;;;4.07;1.67;;;23.70;59.80;;;;;;5105076;28;20039;-71
2022/10/30 12:33:01;;;;;;;8.85;2.33;;;23.70;59.70;;;;;;5102264;28;20016;-71
2022/10/30 12:35:52;;;;;;;29.48;4.20;;;23.80;59.40;;;;;;5101027;28;20020;-70
2022/10/30 12:38:28;;;;;;;12.38;3.88;;;23.80;59.10;;;;;;5098707;28;20023;-70
2022/10/30 12:41:25;;;;;;;9.55;2.55;;;23.90;58.70;;;;;;5100087;28;20032;-69
2022/10/30 12:44:09;;;;;;;15.00;7.80;;;24.00;57.90;;;;;;5103649;28;20053;-71
2022/10/30 12:46:48;;;;;;;12.73;3.95;;;24.10;56.90;;;;;;5101909;28;20154;-70
2022/10/30 12:49:17;;;;;;;6.60;3.08;;;24.10;56.90;;;;;;5103656;28;20180;-70
2022/10/30 12:52:02;;;;;;;7.13;2.40;;;24.20;56.80;;;;;;5105057;28;20028;-70
2022/10/30 12:54:40;;;;;;;8.95;2.00;;;24.30;57.00;;;;;;5101778;28;20028;-71
2022/10/30 12:57:08;;;;;;;9.43;2.97;;;24.40;56.40;;;;;;5106428;28;20502;-70
2022/10/30 12:59:46;;;;;;;4.47;2.17;;;24.40;55.90;;;;;;5107804;28;20020;-70
2022/10/30 13:02:31;;;;;;;4.88;1.70;;;24.60;55.40;;;;;;5103416;28;20672;-71
2022/10/30 13:05:32;;;;;;;5.18;1.83;;;24.60;54.10;;;;;;5105861;28;20486;-71